Time;durP1;ratioP1;P1;durP2;ratioP2;P2;SDS_P1;SDS_P2;PMS_P1;PMS_P2;Temp;Humidity;BMP_temperature;BMP_pressure;BME280_temperature;BME280_humidity;BME280_pressure;Samples;Min_cycle;Max_cycle;Signal;HPM_P1;HPM_P2
2022/07/08 00:01:56;;;;;;;;;3.25;3.00;;;;;18.67;50.26;102721.19;5099798;27;45437;-50
2022/07/08 00:04:22;;;;;;;;;2.25;2.00;;;;;18.67;50.50;102720.34;5099911;27;45357;-51
2022/07/08 00:06:48;;;;;;;;;5.75;4.25;;;;;18.53;50.54;102708.22;5098628;27;45411;-54
2022/07/08 00:09:14;;;;;;;;;2.50;2.50;;;;;18.54;50.73;102711.75;5099393;27;46234;-55
2022/07/08 00:11:41;;;;;;;;;3.75;2.00;;;;;18.53;50.78;102723.53;5099432;27;45453;-51
2022/07/08 00:14:08;;;;;;;;;4.00;4.00;;;;;18.52;51.11;102716.44;5099777;27;45398;-61
2022/07/08 00:16:40;;;;;;;;;5.00;2.00;;;;;18.42;51.10;102708.44;5098488;27;45482;-52
2022/07/08 00:19:06;;;;;;;;;2.50;2.00;;;;;18.45;51.39;102719.75;5099364;27;46269;-59
2022/07/08 00:21:32;;;;;;;;;5.67;3.33;;;;;18.44;51.54;102728.81;5099607;27;45332;-49
2022/07/08 00:23:57;;;;;;;;;10.00;5.33;;;;;18.43;51.88;102724.44;5099618;27;45209;-57
2022/07/08 00:26:22;;;;;;;;;4.00;3.67;;;;;18.41;51.23;102721.06;5099875;27;45254;-46
2022/07/08 00:28:48;;;;;;;;;4.00;2.50;;;;;18.38;51.33;102724.06;5099223;27;46190;-59
2022/07/08 00:31:13;;;;;;;;;4.00;4.00;;;;;18.33;51.99;102712.88;5099179;27;45252;-59
2022/07/08 00:33:38;;;;;;;;;2.50;2.50;;;;;18.34;51.41;102714.56;5099477;27;45453;-46
2022/07/08 00:36:04;;;;;;;;;5.00;3.00;;;;;18.29;51.58;102716.88;5099533;27;45420;-54
2022/07/08 00:38:29;;;;;;;;;4.00;2.25;;;;;18.22;51.82;102704.16;5099231;27;45440;-53
2022/07/08 00:40:54;;;;;;;;;2.25;2.00;;;;;18.22;52.06;102712.22;5099287;27;45353;-50
2022/07/08 00:43:41;;;;;;;;;4.00;2.67;;;;;18.17;51.39;102709.97;5099266;27;45322;-54
2022/07/08 00:46:07;;;;;;;;;3.25;3.25;;;;;18.16;51.99;102710.94;5099276;27;45457;-47
2022/07/08 00:48:34;;;;;;;;;3.00;2.50;;;;;18.10;52.11;102704.31;5099017;27;46226;-56
2022/07/08 00:51:11;;;;;;;;;3.00;3.00;;;;;18.11;52.12;102708.72;5097761;27;45256;-50
2022/07/08 00:53:39;;;;;;;;;4.00;3.00;;;;;18.13;52.03;102716.66;5099133;27;45238;-54
2022/07/08 00:56:05;;;;;;;;;4.67;3.00;;;;;18.10;52.13;102716.94;5099201;27;45391;-52
2022/07/08 00:58:31;;;;;;;;;6.00;4.00;;;;;18.07;52.60;102717.22;5098765;27;47002;-53
2022/07/08 01:00:56;;;;;;;;;5.00;3.00;;;;;17.99;52.39;102703.66;5099122;27;45390;-53
2022/07/08 01:03:22;;;;;;;;;2.00;2.00;;;;;18.07;52.47;102728.84;5099287;27;45503;-53
2022/07/08 01:05:48;;;;;;;;;1.00;1.00;;;;;18.00;52.39;102725.06;5099352;27;45373;-54
2022/07/08 01:08:14;;;;;;;;;3.33;3.00;;;;;18.01;52.70;102734.00;5114793;27;46216;-48
2022/07/08 01:10:39;;;;;;;;;7.00;3.00;;;;;18.01;52.81;102742.06;5098939;27;45273;-48
2022/07/08 01:13:05;;;;;;;;;3.00;3.00;;;;;17.98;52.33;102745.06;5098751;27;45688;-67
2022/07/08 01:15:31;;;;;;;;;2.67;2.33;;;;;17.94;52.85;102739.09;5099035;27;45422;-67
2022/07/08 01:17:56;;;;;;;;;4.67;3.00;;;;;17.92;53.18;102738.41;5098473;27;46087;-64
2022/07/08 01:20:22;;;;;;;;;4.67;2.00;;;;;17.88;52.80;102735.16;5098544;27;45158;-51
2022/07/08 01:22:47;;;;;;;;;4.33;2.00;;;;;17.88;52.82;102747.78;5098625;27;45278;-60
2022/07/08 01:25:13;;;;;;;;;3.67;2.33;;;;;17.85;53.09;102756.16;5098866;27;45249;-60
2022/07/08 01:27:38;;;;;;;;;4.33;2.33;;;;;17.81;52.80;102763.66;5098191;27;46298;-65
2022/07/08 01:30:05;;;;;;;;;2.67;2.00;;;;;17.78;53.01;102765.78;5098224;27;45418;-65
2022/07/08 01:32:36;;;;;;;;;2.00;2.00;;;;;17.73;53.08;102752.72;5114084;27;45833;-51
2022/07/08 01:35:02;;;;;;;;;5.33;5.00;;;;;17.73;53.23;102760.81;5098639;27;45226;-56
2022/07/08 01:37:28;;;;;;;;;5.00;4.00;;;;;17.67;53.33;102753.31;5098031;27;45347;-51
2022/07/08 01:39:53;;;;;;;;;3.67;3.00;;;;;17.54;53.37;102732.09;5098148;27;45219;-49
2022/07/08 01:42:18;;;;;;;;;4.00;2.33;;;;;17.63;54.31;102760.81;5098204;27;45546;-52
2022/07/08 01:44:44;;;;;;;;;4.67;3.00;;;;;17.55;53.83;102752.63;5098130;27;45368;-61
2022/07/08 01:47:09;;;;;;;;;3.00;3.00;;;;;17.58;53.39;102755.03;5097967;27;46067;-55
2022/07/08 01:49:35;;;;;;;;;4.67;3.00;;;;;17.53;53.36;102751.06;5097885;27;45374;-62
2022/07/08 01:52:00;;;;;;;;;3.00;2.67;;;;;17.50;54.39;102757.59;5098185;27;45209;-62
2022/07/08 01:54:26;;;;;;;;;5.00;2.00;;;;;17.47;53.71;102763.25;5098347;27;45391;-55
2022/07/08 01:57:13;;;;;;;;;5.00;3.00;;;;;17.46;54.00;102767.78;5097739;27;46332;-55
2022/07/08 01:59:37;;;;;;;;;4.67;4.00;;;;;17.44;54.69;102767.09;5097609;27;45313;-64
2022/07/08 02:02:03;;;;;;;;;3.00;3.00;;;;;17.43;54.01;102764.53;5097613;27;45375;-62
2022/07/08 02:04:29;;;;;;;;;5.33;3.00;;;;;17.26;53.83;102743.72;5098084;27;45394;-53
2022/07/08 02:06:54;;;;;;;;;6.67;4.00;;;;;17.36;54.69;102760.69;5097659;27;46292;-55
2022/07/08 02:09:20;;;;;;;;;4.00;3.00;;;;;17.34;54.22;102768.06;5097675;27;45342;-60
2022/07/08 02:14:29;;;;;;;;;3.33;3.33;;;;;17.26;54.09;102758.03;5097971;27;45203;-52
2022/07/08 02:16:55;;;;;;;;;3.00;3.00;;;;;17.23;54.18;102765.53;5097482;27;45319;-54
2022/07/08 02:19:20;;;;;;;;;4.33;3.00;;;;;17.17;54.69;102759.72;5097616;27;45374;-61
2022/07/08 02:21:45;;;;;;;;;3.33;3.33;;;;;17.17;54.43;102772.31;5097884;27;45207;-61
2022/07/08 02:24:10;;;;;;;;;3.67;3.00;;;;;17.11;54.96;102770.22;5097963;27;45557;-55
2022/07/08 02:26:36;;;;;;;;;5.33;4.00;;;;;17.06;54.43;102769.75;5097652;27;46226;-55
2022/07/08 02:29:01;;;;;;;;;5.67;5.00;;;;;17.04;54.49;102769.91;5097560;27;45883;-57
2022/07/08 02:31:27;;;;;;;;;3.00;3.00;;;;;17.02;55.07;102771.00;5097591;27;45612;-50
2022/07/08 02:33:52;;;;;;;;;7.00;4.00;;;;;16.98;54.95;102773.16;5096888;27;45547;-49
2022/07/08 02:36:17;;;;;;;;;6.00;2.00;;;;;16.94;55.02;102766.38;5097560;27;46725;-51
2022/07/08 02:38:43;;;;;;;;;4.00;2.67;;;;;16.94;54.97;102761.00;5098025;27;45322;-49
2022/07/08 02:41:08;;;;;;;;;4.00;4.00;;;;;16.92;55.17;102758.41;5097722;27;45586;-49
2022/07/08 02:43:33;;;;;;;;;4.00;2.00;;;;;16.91;55.28;102747.81;5097829;27;45286;-52
2022/07/08 02:45:59;;;;;;;;;5.00;2.00;;;;;16.84;55.57;102744.81;5097312;27;46007;-52
2022/07/08 02:48:24;;;;;;;;;2.67;2.67;;;;;16.83;55.33;102737.75;5097358;27;45333;-52
2022/07/08 02:50:49;;;;;;;;;3.00;3.00;;;;;16.84;55.64;102750.19;5098256;27;45302;-52
2022/07/08 02:53:15;;;;;;;;;3.00;1.33;;;;;16.82;55.75;102756.72;5097580;27;45329;-51
2022/07/08 02:55:40;;;;;;;;;5.33;2.33;;;;;16.81;55.91;102755.00;5097193;27;46030;-52
2022/07/08 02:58:05;;;;;;;;;4.33;4.33;;;;;16.79;55.03;102746.22;5097112;27;45427;-51
2022/07/08 03:00:31;;;;;;;;;5.33;2.00;;;;;16.77;55.77;102749.06;5097107;27;45507;-49
2022/07/08 03:02:56;;;;;;;;;5.00;2.00;;;;;16.74;55.37;102746.66;5097303;27;45425;-51
2022/07/08 03:05:21;;;;;;;;;5.67;3.67;;;;;16.72;55.57;102753.97;5097016;27;45434;-51
2022/07/08 03:07:47;;;;;;;;;3.67;3.00;;;;;16.71;56.58;102755.78;5097030;27;45422;-53
2022/07/08 03:10:12;;;;;;;;;3.67;2.67;;;;;16.73;55.50;102762.91;5097156;27;45383;-52
2022/07/08 03:12:38;;;;;;;;;3.33;2.00;;;;;16.70;56.39;102762.16;5097310;27;45393;-50
2022/07/08 03:15:03;;;;;;;;;3.33;2.00;;;;;16.71;55.46;102763.84;5098744;27;45910;-51
2022/07/08 03:17:28;;;;;;;;;4.50;4.00;;;;;16.68;55.56;102766.81;5100487;27;45381;-49
2022/07/08 03:19:54;;;;;;;;;4.67;2.33;;;;;16.68;56.02;102760.59;5100729;27;45306;-53
2022/07/08 03:22:19;;;;;;;;;3.00;3.00;;;;;16.66;55.44;102766.13;5100719;27;45294;-53
2022/07/08 03:24:44;;;;;;;;;2.33;2.00;;;;;16.61;56.09;102767.53;5100268;27;46092;-55
2022/07/08 03:27:10;;;;;;;;;3.33;3.00;;;;;16.64;56.40;102770.78;5100402;27;45336;-51
2022/07/08 03:29:35;;;;;;;;;5.67;4.00;;;;;16.63;56.20;102765.53;5100207;27;45478;-53
2022/07/08 03:32:00;;;;;;;;;4.00;4.00;;;;;16.62;56.25;102778.13;5100303;27;45216;-51
2022/07/08 03:34:26;;;;;;;;;4.67;2.67;;;;;16.63;56.47;102778.97;5100060;27;45313;-53
2022/07/08 03:36:51;;;;;;;;;5.00;3.00;;;;;16.66;56.56;102776.88;5100109;27;45284;-51
2022/07/08 03:39:17;;;;;;;;;4.00;2.00;;;;;16.62;56.08;102775.44;5100298;27;45166;-54
2022/07/08 03:41:42;;;;;;;;;3.00;3.00;;;;;16.65;56.04;102788.59;5100391;27;45233;-52
2022/07/08 03:44:07;;;;;;;;;6.00;3.67;;;;;16.59;55.96;102789.13;5099711;27;45373;-56
2022/07/08 03:46:33;;;;;;;;;5.00;5.00;;;;;16.62;56.34;102778.13;5100002;27;45243;-52
2022/07/08 03:48:58;;;;;;;;;4.00;3.00;;;;;16.65;55.93;102798.50;5099891;27;45293;-53
2022/07/08 03:51:23;;;;;;;;;2.33;2.00;;;;;16.65;56.05;102801.19;5100463;27;45468;-49
2022/07/08 03:53:49;;;;;;;;;2.00;2.00;;;;;16.53;56.33;102760.16;5099584;27;46241;-52
2022/07/08 03:56:14;;;;;;;;;4.67;3.33;;;;;16.66;56.79;102782.25;5099823;27;45440;-56
2022/07/08 03:58:39;;;;;;;;;2.33;2.33;;;;;16.67;56.52;102801.91;5099954;27;45626;-52
2022/07/08 04:01:05;;;;;;;;;5.33;3.00;;;;;16.67;56.76;102794.69;5098576;27;45869;-57
2022/07/08 04:03:30;;;;;;;;;4.67;1.33;;;;;16.61;56.26;102792.56;5099888;27;46152;-55
2022/07/08 04:05:56;;;;;;;;;2.67;2.00;;;;;16.62;56.02;102794.25;5099744;27;45451;-57
2022/07/08 04:08:21;;;;;;;;;7.00;2.67;;;;;16.65;56.36;102804.72;5099764;27;45323;-54
2022/07/08 04:10:47;;;;;;;;;4.33;2.00;;;;;16.63;55.99;102805.84;5100071;27;45321;-58
2022/07/08 04:13:12;;;;;;;;;5.67;3.33;;;;;16.66;56.32;102810.94;5099496;27;46018;-64
2022/07/08 04:15:38;;;;;;;;;3.33;3.33;;;;;16.63;56.32;102811.22;5099381;27;45402;-65
2022/07/08 04:18:04;;;;;;;;;2.50;2.00;;;;;16.63;56.17;102806.69;5099829;27;45319;-62
2022/07/08 04:20:29;;;;;;;;;3.33;2.33;;;;;16.66;56.82;102806.44;5099904;27;45403;-55
2022/07/08 04:22:54;;;;;;;;;4.00;3.00;;;;;16.65;56.72;102793.97;5099318;27;45327;-53
2022/07/08 04:25:20;;;;;;;;;5.00;2.33;;;;;16.66;55.94;102803.75;5099161;27;45376;-50
2022/07/08 04:27:45;;;;;;;;;6.00;5.00;;;;;16.57;56.29;102796.50;5099828;27;45263;-53
2022/07/08 04:30:11;;;;;;;;;2.33;2.33;;;;;16.61;55.95;102797.94;5099245;27;45208;-54
2022/07/08 04:32:37;;;;;;;;;5.33;4.00;;;;;16.57;56.19;102807.25;5099157;27;46305;-56
2022/07/08 04:35:03;;;;;;;;;4.00;4.00;;;;;16.50;57.32;102778.38;5099063;27;45227;-55
2022/07/08 04:37:28;;;;;;;;;4.00;2.67;;;;;16.69;56.24;102816.06;5099128;27;45352;-57
2022/07/08 04:39:54;;;;;;;;;3.67;2.67;;;;;16.69;55.74;102824.97;5099515;27;45339;-57
2022/07/08 04:42:20;;;;;;;;;5.67;3.00;;;;;16.70;55.81;102823.97;5098856;27;45395;-54
2022/07/08 04:44:45;;;;;;;;;4.00;2.00;;;;;16.68;55.93;102812.50;5098946;27;45371;-52
2022/07/08 04:47:10;;;;;;;;;3.33;1.33;;;;;16.43;55.61;102770.88;5099244;27;45426;-65
2022/07/08 04:49:36;;;;;;;;;4.00;2.00;;;;;16.70;55.50;102815.06;5099206;27;45361;-63
2022/07/08 04:52:01;;;;;;;;;7.67;4.00;;;;;16.58;55.36;102805.41;5098938;27;46016;-53
2022/07/08 04:54:27;;;;;;;;;6.00;3.00;;;;;16.63;55.77;102813.91;5098760;27;45307;-53
2022/07/08 04:56:52;;;;;;;;;3.00;2.33;;;;;16.65;55.44;102826.22;5099272;27;45444;-65
2022/07/08 04:59:17;;;;;;;;;4.00;2.00;;;;;16.53;55.60;102803.13;5099337;27;45479;-64
2022/07/08 05:01:43;;;;;;;;;5.00;3.00;;;;;16.65;55.51;102825.38;5098597;27;46113;-54
2022/07/08 05:04:08;;;;;;;;;4.00;2.67;;;;;16.67;55.75;102828.78;5098819;27;45560;-52
2022/07/08 05:06:33;;;;;;;;;3.00;3.00;;;;;16.70;55.30;102826.66;5098894;27;45366;-58
2022/07/08 05:08:59;;;;;;;;;2.00;2.00;;;;;16.69;55.07;102822.28;5099000;27;45382;-58
2022/07/08 05:11:24;;;;;;;;;4.67;2.00;;;;;16.71;55.89;102823.00;5098549;27;46222;-50
2022/07/08 05:13:50;;;;;;;;;2.00;2.00;;;;;16.72;55.47;102831.91;5098494;27;45463;-62
2022/07/08 05:16:15;;;;;;;;;7.00;3.67;;;;;16.74;55.26;102834.50;5098491;27;45272;-58
2022/07/08 05:18:41;;;;;;;;;2.67;2.00;;;;;16.74;55.40;102840.72;5098781;27;45228;-53
2022/07/08 05:21:06;;;;;;;;;6.33;2.00;;;;;16.79;55.46;102851.91;5098426;27;46137;-62
2022/07/08 05:23:32;;;;;;;;;7.33;3.33;;;;;16.79;55.46;102848.38;5098485;27;45274;-64
2022/07/08 05:25:57;;;;;;;;;5.67;2.67;;;;;16.82;55.04;102854.34;5098659;27;45223;-53
2022/07/08 05:28:22;;;;;;;;;4.00;4.00;;;;;16.82;55.12;102848.97;5098625;27;45177;-61
2022/07/08 05:30:48;;;;;;;;;3.00;3.00;;;;;16.82;54.83;102848.09;5097906;27;47282;-60
2022/07/08 05:33:13;;;;;;;;;4.67;2.67;;;;;16.84;55.06;102846.13;5098672;27;45293;-60
2022/07/08 05:35:38;;;;;;;;;4.67;4.00;;;;;16.88;55.27;102847.56;5099327;27;45227;-59
2022/07/08 05:38:04;;;;;;;;;8.00;4.67;;;;;16.82;54.92;102835.50;5097710;27;45419;-54
2022/07/08 05:40:29;;;;;;;;;3.33;3.33;;;;;16.91;54.77;102847.28;5098291;27;45251;-53
2022/07/08 05:42:54;;;;;;;;;4.00;4.00;;;;;16.92;54.37;102851.66;5098119;27;45358;-60
2022/07/08 05:45:20;;;;;;;;;7.00;5.67;;;;;16.92;54.56;102847.13;5098228;27;45397;-56
2022/07/08 05:47:45;;;;;;;;;3.67;3.67;;;;;16.92;54.84;102848.97;5098621;27;45382;-62
2022/07/08 05:50:11;;;;;;;;;7.00;5.00;;;;;16.95;54.94;102852.25;5098057;27;47179;-60
2022/07/08 05:52:37;;;;;;;;;8.00;6.00;;;;;16.99;54.99;102850.13;5096997;27;45451;-60
2022/07/08 05:55:02;;;;;;;;;7.33;5.00;;;;;17.06;55.10;102845.03;5098213;27;45291;-55
2022/07/08 05:57:28;;;;;;;;;10.67;8.00;;;;;17.12;54.51;102841.81;5098640;27;45396;-58
2022/07/08 05:59:53;;;;;;;;;10.00;7.00;;;;;17.15;54.45;102846.91;5098067;27;45918;-54
2022/07/08 06:02:19;;;;;;;;;10.67;7.67;;;;;17.16;54.32;102836.03;5097864;27;45366;-62
2022/07/08 06:04:44;;;;;;;;;9.33;6.33;;;;;17.19;54.26;102840.25;5098128;27;45475;-64
2022/07/08 06:07:10;;;;;;;;;10.67;6.00;;;;;17.23;54.35;102844.38;5098035;27;45362;-53
2022/07/08 06:09:37;;;;;;;;;5.33;5.00;;;;;17.27;53.90;102842.25;5097712;27;45394;-56
2022/07/08 06:12:03;;;;;;;;;7.00;5.67;;;;;17.26;54.09;102845.94;5097680;27;45374;-57
2022/07/08 06:14:29;;;;;;;;;3.67;3.67;;;;;17.13;53.89;102824.69;5098037;27;45580;-51
2022/07/08 06:16:54;;;;;;;;;4.00;4.00;;;;;17.30;53.84;102841.97;5097919;27;45719;-53
2022/07/08 06:19:20;;;;;;;;;7.33;4.00;;;;;17.29;53.95;102848.34;5097624;27;45584;-56
2022/07/08 06:21:45;;;;;;;;;5.67;4.00;;;;;17.40;53.78;102849.09;5097935;27;45424;-54
2022/07/08 06:24:11;;;;;;;;;4.67;4.33;;;;;17.49;53.10;102854.59;5097685;27;45260;-54
2022/07/08 06:26:36;;;;;;;;;4.00;4.00;;;;;17.52;53.31;102852.47;5097903;27;45258;-58
2022/07/08 06:29:03;;;;;;;;;5.00;3.33;;;;;17.57;52.95;102844.84;5097378;27;46180;-61
2022/07/08 06:31:28;;;;;;;;;5.67;4.33;;;;;17.63;53.28;102851.50;5095701;27;45365;-63
2022/07/08 06:33:56;;;;;;;;;6.67;3.33;;;;;17.71;52.51;102855.16;5097727;27;45351;-55
2022/07/08 06:36:26;;;;;;;;;7.00;4.00;;;;;17.82;52.74;102856.88;5097614;27;45489;-61
2022/07/08 06:38:52;;;;;;;;;6.00;5.00;;;;;17.99;52.17;102857.16;5097109;27;45521;-53
2022/07/08 06:41:18;;;;;;;;;7.00;7.00;;;;;18.14;52.00;102859.25;5095965;27;45854;-52
2022/07/08 06:43:46;;;;;;;;;6.00;6.00;;;;;18.43;51.72;102861.03;5097341;27;45435;-61
2022/07/08 06:46:12;;;;;;;;;7.67;5.67;;;;;18.91;50.71;102858.16;5097432;27;45375;-61
2022/07/08 06:48:37;;;;;;;;;8.33;5.33;;;;;19.47;49.97;102858.06;5098301;27;46129;-60
2022/07/08 06:51:03;;;;;;;;;5.33;4.00;;;;;20.02;49.04;102858.78;5100769;27;45201;-51
2022/07/08 06:54:34;;;;;;;;;7.50;4.50;;;;;20.63;47.42;102849.69;5101057;27;45209;-51
2022/07/08 06:56:14;;;;;;;;;7.00;4.00;;;;;21.38;46.09;102847.09;5101074;27;45632;-57
2022/07/08 06:58:39;;;;;;;;;7.25;4.00;;;;;21.95;45.17;102856.25;5100556;27;46031;-62
2022/07/08 07:01:05;;;;;;;;;10.25;6.00;;;;;22.50;43.66;102855.50;5100455;27;45505;-56
2022/07/08 07:03:30;;;;;;;;;7.00;5.25;;;;;23.04;42.36;102850.19;5100727;27;45451;-51
2022/07/08 07:05:55;;;;;;;;;7.00;5.25;;;;;23.58;42.66;102845.59;5100676;27;45398;-55
2022/07/08 07:08:21;;;;;;;;;5.25;4.00;;;;;24.13;40.75;102857.19;5100525;27;46032;-54
2022/07/08 07:10:46;;;;;;;;;5.00;4.00;;;;;24.63;39.07;102853.78;5100502;27;45315;-51
2022/07/08 07:13:12;;;;;;;;;4.00;2.00;;;;;25.14;39.29;102844.78;5100716;27;45323;-61
2022/07/08 07:15:37;;;;;;;;;7.00;5.75;;;;;25.72;37.26;102848.31;5100681;27;45343;-55
2022/07/08 07:18:03;;;;;;;;;3.50;3.25;;;;;26.41;36.59;102839.38;5100066;27;45364;-56
2022/07/08 07:20:28;;;;;;;;;8.00;6.00;;;;;27.23;35.11;102843.97;5100635;27;45404;-55
2022/07/08 07:22:53;;;;;;;;;8.75;5.50;;;;;28.77;32.20;102846.38;5100529;27;45681;-61
2022/07/08 07:25:19;;;;;;;;;7.75;4.75;;;;;30.44;31.52;102837.75;5100533;27;45352;-58
2022/07/08 07:27:44;;;;;;;;;3.50;2.00;;;;;31.87;29.90;102845.25;5100235;27;45852;-50
2022/07/08 07:30:10;;;;;;;;;4.00;4.00;;;;;33.15;26.32;102840.53;5100097;27;45422;-47
2022/07/08 07:32:35;;;;;;;;;5.75;3.25;;;;;34.32;24.93;102830.53;5100090;27;45375;-66
2022/07/08 07:35:01;;;;;;;;;3.00;3.00;;;;;35.46;23.31;102837.06;5100477;27;45448;-53
2022/07/08 07:37:26;;;;;;;;;4.00;4.00;;;;;36.25;21.70;102850.09;5100246;27;45304;-49
2022/07/08 07:39:52;;;;;;;;;4.00;3.25;;;;;36.81;21.72;102846.72;5100602;27;45341;-51
2022/07/08 07:42:17;;;;;;;;;5.25;5.25;;;;;37.33;20.49;102846.53;5100169;27;45271;-49
2022/07/08 07:44:42;;;;;;;;;4.50;3.00;;;;;38.02;20.32;102842.38;5100363;27;45444;-50
2022/07/08 07:47:07;;;;;;;;;7.25;3.75;;;;;38.62;19.00;102842.41;5099766;27;45279;-51
2022/07/08 07:49:33;;;;;;;;;3.75;3.00;;;;;39.14;18.76;102847.38;5099977;27;45373;-50
2022/07/08 07:51:58;;;;;;;;;5.25;3.00;;;;;39.73;18.37;102853.03;5100147;27;45178;-51
2022/07/08 07:54:23;;;;;;;;;4.50;2.25;;;;;40.28;17.39;102856.34;5099866;27;45376;-50
2022/07/08 07:56:49;;;;;;;;;3.50;2.75;;;;;40.72;17.61;102852.47;5100172;27;46190;-50
2022/07/08 07:59:14;;;;;;;;;3.00;3.00;;;;;41.16;17.25;102845.66;5099895;27;45289;-48
2022/07/08 08:01:39;;;;;;;;;3.25;3.25;;;;;41.88;16.71;102830.13;5099424;27;45288;-53
2022/07/08 08:04:05;;;;;;;;;4.75;3.00;;;;;42.04;17.66;102838.22;5099959;27;45471;-54
2022/07/08 08:06:30;;;;;;;;;7.00;5.25;;;;;42.16;15.89;102838.50;5099412;27;46253;-55
2022/07/08 08:08:57;;;;;;;;;10.00;4.00;;;;;42.51;15.73;102844.50;5099820;27;45327;-69
2022/07/08 08:11:23;;;;;;;;;7.80;4.40;;;;;42.69;16.93;102837.09;5100002;27;45387;-51
2022/07/08 08:13:48;;;;;;;;;5.75;3.75;;;;;42.85;15.58;102839.22;5100065;27;45408;-52
2022/07/08 08:16:13;;;;;;;;;3.50;3.50;;;;;43.12;15.32;102842.28;5115264;27;46051;-58
2022/07/08 08:18:39;;;;;;;;;5.00;3.00;;;;;43.22;14.75;102845.63;5099528;27;45390;-51
2022/07/08 08:21:04;;;;;;;;;6.00;4.75;;;;;43.50;14.54;102843.53;5099795;27;45467;-53
2022/07/08 08:23:30;;;;;;;;;5.00;3.50;;;;;43.78;14.28;102840.50;5099749;27;45377;-51
2022/07/08 08:25:55;;;;;;;;;5.50;3.75;;;;;44.16;14.32;102838.03;5099584;27;45490;-52
2022/07/08 08:28:21;;;;;;;;;6.50;3.50;;;;;44.18;13.77;102834.91;5099220;27;45320;-58
2022/07/08 08:30:46;;;;;;;;;3.00;2.50;;;;;44.30;13.94;102835.97;5099260;27;45295;-55
2022/07/08 08:33:11;;;;;;;;;5.50;3.75;;;;;44.49;16.06;102838.44;5099165;27;45791;-53
2022/07/08 08:35:37;;;;;;;;;3.75;3.00;;;;;44.58;13.53;102830.03;5098816;27;47110;-55
2022/07/08 08:38:03;;;;;;;;;3.75;3.00;;;;;44.97;13.33;102825.44;5099096;27;45376;-54
2022/07/08 08:40:29;;;;;;;;;5.25;4.25;;;;;45.33;13.57;102819.41;5098957;27;45162;-55
2022/07/08 08:42:55;;;;;;;;;3.00;3.00;;;;;45.92;13.06;102830.81;5099523;27;45399;-54
2022/07/08 08:45:20;;;;;;;;;5.25;4.25;;;;;46.19;12.65;102829.53;5098998;27;45998;-54
2022/07/08 08:47:47;;;;;;;;;3.00;2.00;;;;;46.44;11.69;102809.97;5098735;27;45408;-53
2022/07/08 08:53:01;;;;;;;;;4.80;3.00;;;;;47.29;12.16;102812.34;5099163;27;45421;-58
2022/07/08 08:55:29;;;;;;;;;5.20;4.80;;;;;47.39;11.28;102814.72;5099300;27;45465;-56
2022/07/08 08:58:00;;;;;;;;;4.40;2.80;;;;;47.45;11.81;102812.47;5098647;27;45316;-56
2022/07/08 09:00:27;;;;;;;;;4.00;3.00;;;;;47.70;12.02;102814.16;5098980;27;45471;-58
2022/07/08 09:02:54;;;;;;;;;4.60;4.60;;;;;47.82;11.39;102795.59;5098899;27;45235;-56
2022/07/08 09:05:20;;;;;;;;;5.00;3.00;;;;;47.98;10.74;102788.06;5098561;27;47430;-54
2022/07/08 09:07:47;;;;;;;;;7.00;4.40;;;;;48.26;11.02;102807.91;5098826;27;45425;-55
2022/07/08 09:10:14;;;;;;;;;5.80;5.00;;;;;48.47;11.16;102802.94;5098675;27;45411;-54
2022/07/08 09:12:59;;;;;;;;;6.00;5.80;;;;;48.62;11.30;102795.69;5096289;27;45340;-55
2022/07/08 09:15:49;;;;;;;;;4.00;1.80;;;;;48.96;11.28;102797.06;5098551;27;45381;-64
2022/07/08 09:18:20;;;;;;;;;3.60;3.40;;;;;49.16;10.70;102800.06;5098466;27;45514;-55
2022/07/08 09:20:50;;;;;;;;;4.00;4.00;;;;;49.25;10.41;102791.38;5098976;27;45538;-57
2022/07/08 09:23:21;;;;;;;;;4.00;4.00;;;;;49.57;11.27;102786.56;5098716;27;45538;-53
2022/07/08 09:25:52;;;;;;;;;5.60;3.00;;;;;49.30;9.96;102791.09;5098491;27;45387;-57
2022/07/08 09:28:30;;;;;;;;;4.20;4.20;;;;;49.16;10.88;102791.56;5098528;27;45404;-53
2022/07/08 09:30:57;;;;;;;;;6.80;4.40;;;;;49.30;10.20;102791.94;5098271;27;45323;-56
2022/07/08 09:33:25;;;;;;;;;3.80;3.80;;;;;49.63;9.50;102787.94;5098505;27;45315;-62
2022/07/08 09:35:50;;;;;;;;;5.60;3.80;;;;;49.58;9.93;102788.22;5098189;27;47338;-50
2022/07/08 09:38:18;;;;;;;;;4.75;2.75;;;;;49.44;10.01;102791.50;5098186;27;45463;-57
2022/07/08 09:41:12;;;;;;;;;5.20;3.00;;;;;49.09;9.98;102785.69;5098406;27;45508;-58
2022/07/08 09:43:45;;;;;;;;;6.20;2.20;;;;;49.05;9.46;102782.75;5098389;27;45434;-64
2022/07/08 09:46:11;;;;;;;;;5.20;3.80;;;;;48.80;9.82;102786.91;5098379;27;45466;-61
2022/07/08 09:48:36;;;;;;;;;3.00;3.00;;;;;48.99;10.04;102786.25;5097839;27;45385;-58
2022/07/08 09:51:07;;;;;;;;;3.75;3.00;;;;;49.13;10.11;102784.63;5098157;27;45406;-62
2022/07/08 09:53:33;;;;;;;;;6.20;3.80;;;;;49.25;9.83;102778.06;5098441;27;45449;-65
2022/07/08 09:55:59;;;;;;;;;6.40;5.00;;;;;49.20;9.60;102787.66;5097766;27;46251;-59
2022/07/08 09:58:27;;;;;;;;;5.00;5.00;;;;;49.25;10.42;102797.03;5098315;27;45553;-57
2022/07/08 10:00:54;;;;;;;;;4.20;4.20;;;;;49.34;9.88;102789.19;5098262;27;45435;-73
2022/07/08 10:03:21;;;;;;;;;4.20;4.00;;;;;49.23;10.12;102790.94;5098220;27;45308;-60
2022/07/08 10:05:47;;;;;;;;;3.20;3.20;;;;;49.49;9.82;102784.75;5098054;27;46453;-66
2022/07/08 10:08:13;;;;;;;;;5.00;3.00;;;;;49.38;9.88;102778.78;5097753;27;45191;-73
2022/07/08 10:10:42;;;;;;;;;4.20;2.80;;;;;49.38;10.00;102790.91;5098648;27;45229;-68
2022/07/08 10:13:08;;;;;;;;;3.00;3.00;;;;;49.77;9.70;102785.44;5098051;27;45536;-59
2022/07/08 10:15:36;;;;;;;;;6.60;5.00;;;;;49.93;9.14;102774.09;5097752;27;46359;-61
2022/07/08 10:18:10;;;;;;;;;5.80;4.60;;;;;49.66;11.20;102773.88;5098418;27;45301;-69
2022/07/08 10:20:39;;;;;;;;;5.20;2.80;;;;;49.48;9.48;102775.47;5097752;27;45349;-64
2022/07/08 10:23:08;;;;;;;;;6.40;3.60;;;;;49.37;9.22;102780.81;5097614;27;45412;-61
2022/07/08 10:25:35;;;;;;;;;4.20;4.20;;;;;49.19;10.08;102776.72;5097787;27;45387;-70
2022/07/08 10:28:18;;;;;;;;;6.00;3.80;;;;;48.88;9.76;102775.44;5097526;27;45304;-61
2022/07/08 10:30:49;;;;;;;;;5.40;3.20;;;;;48.85;10.26;102758.44;5097513;27;45281;-59
2022/07/08 10:33:20;;;;;;;;;3.60;2.00;;;;;48.73;10.06;102770.59;5097802;27;45402;-59
2022/07/08 10:36:04;;;;;;;;;4.00;3.00;;;;;48.25;9.78;102763.91;5097726;27;46540;-66
2022/07/08 10:38:43;;;;;;;;;3.00;3.00;;;;;47.84;10.55;102765.06;5096141;27;45754;-58
2022/07/08 10:41:10;;;;;;;;;4.00;3.40;;;;;47.38;10.66;102769.97;5097531;27;45324;-62
2022/07/08 10:43:37;;;;;;;;;4.40;3.00;;;;;46.79;10.95;102764.63;5097615;27;45335;-57
2022/07/08 10:46:04;;;;;;;;;2.00;2.00;;;;;46.26;11.17;102759.44;5097377;27;46134;-57
2022/07/08 10:48:51;;;;;;;;;5.40;3.80;;;;;45.33;11.31;102765.22;5097184;27;45411;-63
2022/07/08 10:51:20;;;;;;;;;5.00;4.20;;;;;44.63;11.82;102765.31;5097479;27;45295;-63
2022/07/08 10:53:49;;;;;;;;;4.00;4.00;;;;;43.27;12.76;102769.03;5097530;27;45418;-58
2022/07/08 10:56:49;;;;;;;;;4.00;2.00;;;;;40.96;14.05;102774.19;5097171;27;46151;-56
2022/07/08 10:59:35;;;;;;;;;3.80;3.80;;;;;38.96;15.82;102763.75;5093944;27;45586;-61
2022/07/08 11:02:04;;;;;;;;;3.60;3.20;;;;;37.65;16.65;102764.91;5097375;27;45374;-56
2022/07/08 11:04:33;;;;;;;;;2.00;2.00;;;;;36.42;17.37;102763.97;5097575;27;45405;-63
2022/07/08 11:07:16;;;;;;;;;3.20;3.00;;;;;35.21;18.08;102768.50;5097158;27;45462;-62
2022/07/08 11:09:44;;;;;;;;;3.60;3.00;;;;;34.24;18.34;102764.69;5097120;27;45374;-57
2022/07/08 11:12:14;;;;;;;;;4.40;2.60;;;;;33.24;20.16;102766.50;5097412;27;45307;-62
2022/07/08 11:14:47;;;;;;;;;2.20;2.00;;;;;32.50;20.83;102759.06;5097400;27;45356;-62
2022/07/08 11:17:17;;;;;;;;;5.00;3.00;;;;;31.91;21.64;102763.03;5096741;27;46161;-58
2022/07/08 11:19:43;;;;;;;;;7.20;4.00;;;;;31.42;21.90;102765.97;5096733;27;45229;-62
2022/07/08 11:22:09;;;;;;;;;5.20;4.00;;;;;30.95;22.55;102765.88;5097047;27;45270;-61
2022/07/08 11:24:39;;;;;;;;;3.00;3.00;;;;;30.57;23.11;102761.50;5097221;27;45425;-55
2022/07/08 11:27:05;;;;;;;;;3.20;2.00;;;;;30.39;23.37;102764.28;5097356;27;45373;-59
2022/07/08 11:29:31;;;;;;;;;3.00;2.60;;;;;30.23;23.29;102751.19;5096771;27;45271;-60
2022/07/08 11:31:57;;;;;;;;;4.25;3.75;;;;;29.98;24.29;102752.06;5097517;27;45390;-55